Terminal Aerodrome Forecast
Issued by NWS

Home | Current Version | Previous Version | Text Only | Print | Product List | Glossary On
Versions: 1 2 3 4 5 6 7 8 9 10 11 12 13 14 15 16 17 18 19 20 21
000
FTUS44 KOUN 250530
TAFGAG
TAF
KGAG 250530Z 2506/2606 16010KT P6SM SCT070 BKN120
      TEMPO 2507/2510 3SM -TSRA BKN050CB
     FM251400 06004KT P6SM SCT060 BKN120
     FM252100 12006KT P6SM SCT060 BKN120
      TEMPO 2521/2524 3SM TSRA BKN050CB
     FM260000 16008KT P6SM OVC100 PROB30 2600/2606 3SM TSRA BKN050CB
      OVC100=

USA.gov is the U.S. government's official web portal to all federal, state and local government web resources and services.